.
WxDataArchive / Data Records for 2011-04-27
2011-04-26 April 2011 2011-04-28

Data Records for Wednesday, 27 April 2011

Time	Temp	Chill	HIndex	Humid	Dewpt	 Wind 	HiWind	WindDir	Rain 	Barom 
-----	----	-----	------	-----	-----	------	------	-------	-----	----- 
00:00	63.9	63.9	63.9	87	59.9	1	4	248	0.00	29.620 
00:05	64.0	64.0	64.0	86	59.7	1	3	248	0.00	29.620 
00:10	64.0	64.0	64.0	86	59.7	1	3	248	0.00	29.620 
00:15	64.0	64.0	64.0	85	59.4	0	3	248	0.00	29.616 
00:20	64.0	64.0	64.0	84	59.1	0	2	248	0.00	29.616 
00:25	63.7	63.7	63.7	83	58.4	0	2	248	0.00	29.616 
00:30	63.5	63.5	63.5	83	58.2	0	2	248	0.00	29.619 
00:35	63.2	63.2	63.2	81	57.3	1	3	248	0.00	29.619 
00:40	62.7	62.7	62.7	78	55.7	1	3	338	0.00	29.619 
00:45	62.4	62.4	62.4	76	54.7	1	2	315	0.00	29.619 
00:50	62.4	62.4	62.4	76	54.7	0	2	315	0.00	29.619 
00:55	62.1	62.1	62.1	76	54.4	0	0	---	0.00	29.619 
01:00	62.0	62.0	62.0	76	54.3	0	0	---	0.00	29.613 
01:05	61.6	61.6	61.6	76	54.0	0	0	---	0.00	29.613 
01:10	61.5	61.5	61.5	77	54.2	0	0	---	0.00	29.613 
01:15	61.3	61.3	61.3	77	54.0	0	0	---	0.00	29.616 
01:20	61.2	61.2	61.2	77	53.9	0	0	---	0.00	29.616 
01:25	61.0	61.0	61.0	78	54.1	0	0	---	0.00	29.616 
01:30	60.9	60.9	60.9	78	54.0	0	0	---	0.00	29.625 
01:35	60.7	60.7	60.7	79	54.1	0	0	---	0.00	29.625 
01:40	60.7	60.7	60.7	80	54.5	0	0	---	0.00	29.625 
01:45	60.5	60.5	60.5	80	54.3	0	0	---	0.00	29.629 
01:50	60.4	60.4	60.4	80	54.2	0	0	---	0.00	29.629 
01:55	60.2	60.2	60.2	80	54.0	0	0	---	0.00	29.629 
02:00	60.2	60.2	60.2	81	54.3	0	0	---	0.00	29.620 
02:05	60.2	60.2	60.2	81	54.3	0	0	---	0.00	29.620 
02:10	60.2	60.2	60.2	81	54.3	0	0	---	0.00	29.620 
02:15	60.1	60.1	60.1	81	54.2	0	0	---	0.00	29.610 
02:20	60.1	60.1	60.1	82	54.6	0	0	---	0.00	29.610 
02:25	60.1	60.1	60.1	82	54.6	0	0	---	0.00	29.610 
02:30	60.1	60.1	60.1	82	54.6	0	0	---	0.00	29.614 
02:35	59.9	59.9	59.9	83	54.7	0	0	---	0.00	29.614 
02:40	59.9	59.9	59.9	83	54.7	0	0	---	0.00	29.614 
02:45	59.9	59.9	59.9	83	54.7	0	0	---	0.00	29.599 
02:50	59.9	59.9	59.9	83	54.7	0	0	---	0.00	29.599 
02:55	59.9	59.9	59.9	83	54.7	0	0	---	0.00	29.599 
03:00	59.8	59.8	59.8	83	54.6	0	0	---	0.00	29.587 
03:05	59.8	59.8	59.8	83	54.6	0	0	---	0.00	29.587 
03:10	59.8	59.8	59.8	83	54.6	0	0	---	0.00	29.587 
03:15	59.8	59.8	59.8	83	54.6	0	0	---	0.00	29.588 
03:20	59.8	59.8	59.8	82	54.3	0	0	---	0.00	29.588 
03:25	59.8	59.8	59.8	81	54.0	0	0	---	0.00	29.588 
03:30	59.8	59.8	59.8	81	54.0	0	0	---	0.00	29.591 
03:35	59.9	59.9	59.9	81	54.1	0	0	---	0.00	29.591 
03:40	59.9	59.9	59.9	80	53.7	0	1	315	0.00	29.591 
03:45	59.9	59.9	59.9	79	53.4	0	0	---	0.00	29.568 
03:50	59.9	59.9	59.9	79	53.4	0	0	---	0.00	29.568 
03:55	59.9	59.9	59.9	78	53.0	0	0	---	0.00	29.568 
04:00	59.9	59.9	59.9	79	53.4	0	0	---	0.00	29.589 
04:05	59.9	59.9	59.9	80	53.7	0	0	---	0.00	29.589 
04:10	59.9	59.9	59.9	82	54.4	0	1	315	0.01	29.589 
04:15	59.6	59.6	59.6	84	54.8	0	0	---	0.02	29.600 
04:20	59.3	59.3	59.3	85	54.8	0	1	315	0.00	29.600 
04:25	59.0	59.0	59.0	86	54.8	0	0	---	0.01	29.600 
04:30	58.7	58.7	58.7	87	54.8	0	0	---	0.00	29.602 
04:35	58.4	58.4	58.4	88	54.9	0	0	---	0.00	29.602 
04:40	58.3	58.3	58.3	89	55.1	0	0	---	0.01	29.602 
04:45	58.3	58.3	58.3	90	55.4	0	1	315	0.00	29.613 
04:50	58.3	58.3	58.3	90	55.4	0	0	---	0.02	29.613 
04:55	58.3	58.3	58.3	91	55.7	0	0	---	0.00	29.613 
05:00	58.3	58.3	58.3	92	56.0	0	0	---	0.01	29.593 
05:05	58.4	58.4	58.4	92	56.1	0	0	---	0.00	29.593 
05:10	58.6	58.6	58.6	92	56.3	0	0	---	0.01	29.593 
05:15	58.7	58.7	58.7	93	56.7	0	0	---	0.00	29.564 
05:20	58.7	58.7	58.7	93	56.7	0	0	---	0.00	29.564 
05:25	58.7	58.7	58.7	93	56.7	0	0	---	0.01	29.564 
05:30	58.6	58.6	58.6	93	56.6	0	0	---	0.00	29.553 
05:35	58.6	58.6	58.6	93	56.6	0	0	---	0.00	29.553 
05:40	58.6	58.6	58.6	94	56.9	0	0	---	0.01	29.553 
05:45	58.4	58.4	58.4	94	56.7	0	0	---	0.00	29.538 
05:50	58.4	58.4	58.4	94	56.7	0	0	---	0.01	29.538 
05:55	58.4	58.4	58.4	94	56.7	0	0	---	0.00	29.538 
06:00	58.6	58.6	58.6	95	57.2	0	1	315	0.01	29.531 
06:05	59.2	59.2	59.2	95	57.8	0	3	45	0.00	29.531 
06:10	59.5	59.5	59.5	95	58.1	0	3	112	0.00	29.531 
06:15	59.5	59.5	59.5	95	58.1	0	2	112	0.00	29.519 
06:20	59.5	59.5	59.5	95	58.1	0	1	112	0.00	29.519 
06:25	59.3	59.3	59.3	95	57.9	0	2	112	0.01	29.519 
06:30	59.2	59.2	59.2	95	57.8	0	2	112	0.00	29.511 
06:35	58.9	58.9	58.9	95	57.5	1	3	112	0.01	29.511 
06:40	58.7	58.7	58.7	95	57.3	1	3	112	0.00	29.511 
06:45	58.7	58.7	58.7	95	57.3	1	4	112	0.00	29.496 
06:50	58.7	58.7	58.7	95	57.3	2	5	112	0.01	29.496 
06:55	58.7	58.7	58.7	95	57.3	3	6	68	0.00	29.496 
07:00	58.7	58.7	58.7	95	57.3	2	5	90	0.01	29.493 
07:05	58.9	58.9	58.9	95	57.5	3	5	112	0.01	29.493 
07:10	58.9	58.9	58.9	95	57.5	2	5	90	0.00	29.493 
07:15	58.9	58.9	58.9	95	57.5	3	7	112	0.01	29.478 
07:20	58.9	58.9	58.9	95	57.5	3	8	90	0.00	29.478 
07:25	58.9	58.9	58.9	95	57.5	4	7	112	0.01	29.478 
07:30	58.9	58.9	58.9	95	57.5	4	7	90	0.01	29.466 
07:35	58.9	58.9	58.9	96	57.8	4	8	112	0.00	29.466 
07:40	58.9	58.9	58.9	96	57.8	4	11	112	0.01	29.466 
07:45	59.0	59.0	59.0	96	57.9	4	11	112	0.01	29.466 
07:50	59.0	59.0	59.0	96	57.9	4	10	112	0.01	29.466 
07:55	59.0	59.0	59.0	96	57.9	4	8	90	0.00	29.466 
08:00	59.2	59.2	59.2	96	58.1	4	7	112	0.01	29.464 
08:05	59.2	59.2	59.2	96	58.1	2	5	112	0.00	29.464 
08:10	59.2	59.2	59.2	96	58.1	3	7	90	0.00	29.464 
08:15	59.2	59.2	59.2	96	58.1	4	7	90	0.01	29.453 
08:20	59.2	59.2	59.2	96	58.1	2	5	112	0.00	29.453 
08:25	59.3	59.3	59.3	96	58.2	2	5	112	0.00	29.453 
08:30	59.5	59.5	59.5	96	58.4	3	9	90	0.00	29.461 
08:35	59.5	59.5	59.5	96	58.4	2	5	90	0.00	29.461 
08:40	59.6	59.6	59.6	96	58.5	3	10	112	0.01	29.461 
08:45	59.8	59.8	59.8	96	58.7	2	6	68	0.00	29.435 
08:50	59.9	59.9	59.9	95	58.5	2	7	112	0.00	29.435 
08:55	60.1	60.1	60.1	95	58.7	2	5	22	0.00	29.435 
09:00	60.1	60.1	60.1	95	58.7	2	5	90	0.00	29.416 
09:05	60.1	60.1	60.1	95	58.7	1	3	112	0.00	29.416 
09:10	60.1	60.1	60.1	94	58.4	1	5	112	0.00	29.416 
09:15	60.1	60.1	60.1	94	58.4	2	6	112	0.00	29.411 
09:20	60.2	60.2	60.2	94	58.5	2	6	112	0.00	29.411 
09:25	60.2	60.2	60.2	94	58.5	2	5	112	0.00	29.411 
09:30	60.4	60.4	60.4	93	58.4	3	7	112	0.00	29.409 
09:35	60.5	60.5	60.5	93	58.5	3	7	90	0.01	29.409 
09:40	60.7	60.7	60.7	93	58.7	3	9	90	0.00	29.409 
09:45	60.7	60.7	60.7	93	58.7	3	9	90	0.00	29.401 
09:50	60.9	60.9	60.9	93	58.9	2	6	112	0.00	29.401 
09:55	60.9	60.9	60.9	93	58.9	3	6	90	0.00	29.401 
10:00	61.0	61.0	61.0	92	58.7	4	9	90	0.00	29.382 
10:05	61.0	61.0	61.0	92	58.7	4	7	112	0.00	29.382 
10:10	61.0	61.0	61.0	92	58.7	3	10	112	0.00	29.382 
10:15	61.2	61.2	61.2	91	58.5	2	9	90	0.00	29.375 
10:20	61.2	61.2	61.2	90	58.2	3	10	90	0.01	29.375 
10:25	61.3	61.3	61.3	90	58.3	3	8	90	0.00	29.375 
10:30	61.5	61.5	61.5	89	58.2	4	11	90	0.00	29.369 
10:35	61.6	61.6	61.6	89	58.3	2	7	90	0.00	29.369 
10:40	61.8	61.8	61.8	89	58.5	3	7	112	0.00	29.369 
10:45	62.3	62.3	62.3	89	59.0	2	5	90	0.00	29.369 
10:50	62.4	62.4	62.4	88	58.8	3	6	90	0.00	29.369 
10:55	62.6	62.6	62.6	87	58.7	4	12	90	0.00	29.369 
11:00	62.6	62.6	62.6	86	58.3	3	9	112	0.00	29.369 
11:05	62.7	62.7	62.7	86	58.4	2	6	68	0.00	29.369 
11:10	62.7	62.7	62.7	86	58.4	2	11	315	0.00	29.369 
11:15	63.1	63.1	63.1	85	58.5	2	6	90	0.00	29.377 
11:20	63.5	63.5	63.5	84	58.6	2	6	248	0.00	29.377 
11:25	63.9	63.9	63.9	82	58.3	3	10	248	0.00	29.377 
11:30	64.0	64.0	64.0	80	57.7	5	12	248	0.00	29.395 
11:35	64.2	64.2	64.2	78	57.2	6	15	270	0.00	29.395 
11:40	64.5	64.5	64.5	78	57.5	5	13	248	0.00	29.395 
11:45	64.3	64.3	64.3	77	56.9	4	12	248	0.00	29.399 
11:50	64.0	64.0	64.0	77	56.6	6	21	270	0.01	29.399 
11:55	64.0	64.0	64.0	78	57.0	5	15	248	0.00	29.399 
12:00	64.5	64.5	64.5	77	57.1	7	16	248	0.00	29.412 
12:05	65.0	65.0	65.0	77	57.6	5	13	248	0.00	29.412 
12:10	65.2	65.2	65.2	76	57.4	4	10	248	0.00	29.412 
12:15	65.0	65.0	65.0	76	57.2	7	19	248	0.00	29.428 
12:20	65.2	65.2	65.2	77	57.8	6	16	248	0.00	29.428 
12:25	65.2	65.2	65.2	77	57.8	5	16	248	0.00	29.428 
12:30	65.0	65.0	65.0	77	57.6	4	11	248	0.00	29.436 
12:35	65.0	65.0	65.0	76	57.2	6	14	248	0.00	29.436 
12:40	65.0	65.0	65.0	76	57.2	6	15	270	0.00	29.436 
12:45	65.3	65.3	65.3	77	57.9	4	8	248	0.00	29.451 
12:50	66.0	66.0	66.0	77	58.6	3	9	248	0.00	29.451 
12:55	66.0	66.0	66.0	76	58.2	5	11	270	0.00	29.451 
13:00	65.8	65.8	65.8	77	58.4	3	10	248	0.00	29.455 
13:05	65.6	65.6	65.6	74	57.1	5	14	248	0.00	29.455 
13:10	65.6	65.6	65.6	73	56.7	6	10	248	0.00	29.455 
13:15	64.8	64.8	64.8	74	56.3	5	10	270	0.00	29.479 
13:20	63.9	63.9	63.9	76	56.2	5	11	270	0.00	29.479 
13:25	63.5	63.5	63.5	77	56.2	5	13	270	0.00	29.479 
13:30	63.2	63.2	63.2	77	55.9	5	10	270	0.00	29.494 
13:35	62.9	62.9	62.9	77	55.6	5	11	270	0.00	29.494 
13:40	62.7	62.7	62.7	76	55.0	4	10	270	0.00	29.494 
13:45	62.0	62.0	62.0	76	54.3	5	8	270	0.00	29.498 
13:50	61.8	61.8	61.8	76	54.1	4	7	248	0.00	29.498 
13:55	62.0	62.0	62.0	77	54.7	3	6	270	0.00	29.498 
14:00	62.0	62.0	62.0	76	54.3	3	6	248	0.00	29.514 
14:05	61.6	61.6	61.6	75	53.6	3	6	248	0.00	29.514 
14:10	61.3	61.3	61.3	76	53.7	2	4	292	0.00	29.514 
14:15	61.2	61.2	61.2	76	53.6	3	5	270	0.00	29.520 
14:20	60.9	60.9	60.9	76	53.3	3	4	270	0.00	29.520 
14:25	60.9	60.9	60.9	77	53.6	2	4	248	0.00	29.520 
14:30	60.7	60.7	60.7	77	53.4	2	4	270	0.00	29.513 
14:35	60.9	60.9	60.9	77	53.6	2	4	270	0.00	29.513 
14:40	60.7	60.7	60.7	76	53.1	2	5	248	0.00	29.513 
14:45	60.7	60.7	60.7	77	53.4	2	5	270	0.00	29.516 
14:50	60.9	60.9	60.9	77	53.6	2	4	270	0.00	29.516 
14:55	61.0	61.0	61.0	76	53.4	2	4	315	0.00	29.516 
15:00	61.0	61.0	61.0	76	53.4	2	4	292	0.00	29.533 
15:05	60.9	60.9	60.9	75	52.9	1	4	248	0.00	29.533 
15:10	60.5	60.5	60.5	76	52.9	1	2	248	0.00	29.533 
15:15	60.7	60.7	60.7	77	53.4	1	3	248	0.00	29.530 
15:20	60.9	60.9	60.9	77	53.6	1	4	248	0.00	29.530 
15:25	61.2	61.2	61.2	76	53.6	0	2	248	0.00	29.530 
15:30	61.3	61.3	61.3	76	53.7	0	1	248	0.00	29.528 
15:35	61.6	61.6	61.6	76	54.0	1	2	248	0.00	29.528 
15:40	61.6	61.6	61.6	75	53.6	1	4	248	0.00	29.528 
15:45	61.6	61.6	61.6	74	53.2	1	3	248	0.00	29.539 
15:50	62.0	62.0	62.0	74	53.6	1	2	248	0.00	29.539 
15:55	62.0	62.0	62.0	74	53.6	0	2	248	0.00	29.539 
16:00	62.0	62.0	62.0	74	53.6	0	1	248	0.00	29.541 
16:05	62.4	62.4	62.4	73	53.6	1	3	248	0.00	29.541 
16:10	62.7	62.7	62.7	73	53.9	1	3	248	0.00	29.541 
16:15	63.2	63.2	63.2	73	54.4	0	2	248	0.00	29.523 
16:20	63.5	63.5	63.5	71	53.9	0	1	248	0.00	29.523 
16:25	63.7	63.7	63.7	70	53.7	0	2	248	0.00	29.523 
16:30	63.4	63.4	63.4	70	53.4	0	2	248	0.00	29.529 
16:35	63.2	63.2	63.2	73	54.4	0	1	248	0.00	29.529 
16:40	63.1	63.1	63.1	72	53.9	0	2	248	0.00	29.529 
16:45	62.7	62.7	62.7	73	53.9	0	3	248	0.00	29.538 
16:50	62.4	62.4	62.4	73	53.6	1	3	248	0.00	29.538 
16:55	62.3	62.3	62.3	73	53.5	1	4	248	0.00	29.538 
17:00	62.1	62.1	62.1	73	53.3	0	3	248	0.00	29.537 
17:05	62.1	62.1	62.1	73	53.3	1	2	248	0.00	29.537 
17:10	62.0	62.0	62.0	73	53.2	0	2	248	0.00	29.537 
17:15	61.8	61.8	61.8	75	53.8	0	1	248	0.00	29.531 
17:20	61.6	61.6	61.6	76	54.0	0	1	248	0.00	29.531 
17:25	61.5	61.5	61.5	77	54.2	0	1	248	0.00	29.531 
17:30	61.3	61.3	61.3	77	54.0	0	1	248	0.00	29.530 
17:35	61.2	61.2	61.2	78	54.3	0	1	248	0.00	29.530 
17:40	61.0	61.0	61.0	79	54.4	0	2	248	0.00	29.530 
17:45	60.9	60.9	60.9	80	54.7	0	1	248	0.00	29.528 
17:50	60.5	60.5	60.5	81	54.6	0	1	248	0.01	29.528 
17:55	60.4	60.4	60.4	82	54.9	0	0	---	0.00	29.528 
18:00	60.2	60.2	60.2	84	55.3	0	0	---	0.00	29.529 
18:05	60.1	60.1	60.1	85	55.6	0	1	248	0.00	29.529 
18:10	59.9	59.9	59.9	85	55.4	0	1	248	0.01	29.529 
18:15	59.6	59.6	59.6	86	55.4	0	1	202	0.00	29.530 
18:20	59.5	59.5	59.5	87	55.6	0	1	202	0.00	29.530 
18:25	59.3	59.3	59.3	88	55.7	0	1	202	0.01	29.530 
18:30	59.2	59.2	59.2	88	55.6	0	2	158	0.00	29.528 
18:35	59.0	59.0	59.0	88	55.4	0	1	158	0.01	29.528 
18:40	58.9	58.9	58.9	89	55.7	0	1	158	0.00	29.528 
18:45	58.7	58.7	58.7	90	55.8	0	2	158	0.00	29.516 
18:50	58.7	58.7	58.7	91	56.1	0	2	158	0.00	29.516 
18:55	58.6	58.6	58.6	91	56.0	0	1	158	0.00	29.516 
19:00	58.6	58.6	58.6	92	56.3	0	1	158	0.00	29.498 
19:05	58.4	58.4	58.4	92	56.1	0	1	158	0.00	29.498 
19:10	58.4	58.4	58.4	92	56.1	0	2	158	0.01	29.498 
19:15	58.3	58.3	58.3	92	56.0	0	2	158	0.00	29.490 
19:20	58.1	58.1	58.1	92	55.8	0	0	---	0.00	29.490 
19:25	58.1	58.1	58.1	92	55.8	0	1	158	0.00	29.490 
19:30	58.1	58.1	58.1	92	55.8	0	1	158	0.00	29.475 
19:35	58.1	58.1	58.1	92	55.8	0	1	158	0.00	29.475 
19:40	58.0	58.0	58.0	92	55.7	0	1	158	0.00	29.475 
19:45	58.0	58.0	58.0	92	55.7	0	1	158	0.00	29.470 
19:50	58.0	58.0	58.0	93	56.0	0	2	158	0.00	29.470 
19:55	58.0	58.0	58.0	93	56.0	1	3	158	0.00	29.470 
20:00	58.0	58.0	58.0	93	56.0	0	1	158	0.00	29.466 
20:05	58.0	58.0	58.0	93	56.0	0	1	158	0.00	29.466 
20:10	57.8	57.8	57.8	93	55.8	1	3	158	0.00	29.466 
20:15	57.8	57.8	57.8	94	56.1	0	2	158	0.00	29.454 
20:20	57.6	57.6	57.6	94	55.9	1	3	90	0.00	29.454 
20:25	57.6	57.6	57.6	94	55.9	1	5	112	0.00	29.454 
20:30	57.6	57.6	57.6	94	55.9	0	3	112	0.00	29.462 
20:35	57.6	57.6	57.6	94	55.9	0	2	112	0.00	29.462 
20:40	57.5	57.5	57.5	94	55.8	1	3	112	0.00	29.462 
20:45	57.5	57.5	57.5	95	56.1	1	4	112	0.00	29.454 
20:50	57.5	57.5	57.5	95	56.1	1	5	112	0.00	29.454 
20:55	57.5	57.5	57.5	95	56.1	1	2	112	0.00	29.454 
21:00	57.3	57.3	57.3	95	55.9	1	3	112	0.00	29.439 
21:05	57.3	57.3	57.3	95	55.9	0	2	112	0.00	29.439 
21:10	57.5	57.5	57.5	95	56.1	0	2	112	0.00	29.439 
21:15	57.5	57.5	57.5	95	56.1	0	0	---	0.00	29.445 
21:20	57.6	57.6	57.6	95	56.2	1	3	112	0.00	29.445 
21:25	57.6	57.6	57.6	95	56.2	1	3	112	0.00	29.445 
21:30	57.6	57.6	57.6	96	56.5	1	2	112	0.00	29.428 
21:35	57.6	57.6	57.6	96	56.5	1	4	112	0.00	29.428 
21:40	57.6	57.6	57.6	96	56.5	1	3	112	0.00	29.428 
21:45	57.6	57.6	57.6	96	56.5	1	4	112	0.00	29.429 
21:50	57.5	57.5	57.5	96	56.4	1	3	112	0.00	29.429 
21:55	57.5	57.5	57.5	96	56.4	1	3	112	0.00	29.429 
22:00	57.3	57.3	57.3	96	56.2	2	4	112	0.00	29.423 
22:05	57.2	57.2	57.2	96	56.1	2	5	112	0.00	29.423 
22:10	57.2	57.2	57.2	96	56.1	1	4	112	0.00	29.423 
22:15	57.2	57.2	57.2	96	56.1	2	4	90	0.00	29.416 
22:20	57.2	57.2	57.2	96	56.1	2	5	68	0.00	29.416 
22:25	57.2	57.2	57.2	96	56.1	2	5	112	0.00	29.416 
22:30	57.2	57.2	57.2	96	56.1	2	6	112	0.00	29.387 
22:35	57.0	57.0	57.0	96	55.9	3	7	90	0.01	29.387 
22:40	57.0	57.0	57.0	96	55.9	2	5	68	0.00	29.387 
22:45	57.0	57.0	57.0	96	55.9	2	6	90	0.00	29.393 
22:50	57.0	57.0	57.0	96	55.9	1	4	90	0.00	29.393 
22:55	57.0	57.0	57.0	96	55.9	1	3	90	0.00	29.393 
23:00	57.0	57.0	57.0	96	55.9	0	2	90	0.01	29.385 
23:05	57.2	57.2	57.2	96	56.1	1	3	90	0.00	29.385 
23:10	57.2	57.2	57.2	96	56.1	1	3	90	0.00	29.385 
23:15	57.2	57.2	57.2	96	56.1	0	1	90	0.00	29.372 
23:20	57.2	57.2	57.2	96	56.1	0	1	90	0.01	29.372 
23:25	57.2	57.2	57.2	96	56.1	0	2	90	0.01	29.372 
23:30	57.2	57.2	57.2	96	56.1	1	3	90	0.02	29.357 
23:35	57.2	57.2	57.2	96	56.1	1	3	90	0.02	29.357 
23:40	57.2	57.2	57.2	96	56.1	0	3	90	0.03	29.357 
23:45	57.0	57.0	57.0	96	55.9	1	3	90	0.03	29.341 
23:50	57.0	57.0	57.0	96	55.9	0	4	90	0.02	29.341 
23:55	57.0	57.0	57.0	96	55.9	1	3	90	0.02	29.341 

CoCoRaHS
IN-AL-39
A2 Web Hosting
Creative Commons License
GoDaddy
search engine by freefind advanced

loaded 2018-11-20 03:37:46 • last modified 2010-11-18 10:43:29
Privacy PolicyDisclaimer
• wx.awcolley.com is powered by PmWiki v.2002016 •
• all content (unless otherwise noted) © 2018 A W Colley